West Monocacy, Pennsylvania
Current Conditions -  °F | °C
As of 11:54 PM on Monday 20 Oct 2014 (Local Time) from KPTW Reporting Station
Overcast Overcast  
Wind Chill: 55°   Ceiling: 7000
Heat Index: 55°   Visibility: 10mi
Dew Point: 43°   Wind: 3mph
Humidity: 64%   Direction: NA
Pressure: 29.96"   Gusts: NA
Location:  40.2688°N, 75.7411°W
Report Text: KPTW 210354Z AUTO VRB03KT 10SM BKN070 OVC090 13/06 A2996 RMK AO2 SLP143 T01280061
Loading
Personal Weather Stations






























Interactive Weather Map
Tropical Storm Tracking
New forecast layout! Learn more

10-Day Weather Forecast

Advertisements
Track Severe Weather on mobile